createdAt,value
2018-07-06T00:02:37.449Z,6.80
2018-07-06T00:05:17.207Z,6.53
2018-07-06T00:07:56.957Z,6.20
2018-07-06T00:10:36.693Z,5.73
2018-07-06T00:13:16.358Z,5.97
2018-07-06T00:15:49.927Z,5.70
2018-07-06T00:18:29.680Z,4.87
2018-07-06T00:21:09.368Z,4.73
2018-07-06T00:23:48.991Z,4.00
2018-07-06T00:26:22.507Z,4.30
2018-07-06T00:29:02.415Z,4.37
2018-07-06T00:31:42.050Z,4.80
2018-07-06T00:34:21.588Z,4.70
2018-07-06T00:37:01.123Z,4.07
2018-07-06T00:39:40.891Z,4.10
2018-07-06T00:42:20.630Z,3.60
2018-07-06T00:45:00.227Z,4.07
2018-07-06T00:47:39.787Z,3.30
2018-07-06T00:50:19.519Z,3.90
2018-07-06T00:52:59.208Z,4.60
2018-07-06T00:55:38.897Z,4.23
2018-07-06T00:58:22.887Z,4.37
2018-07-06T01:01:02.497Z,4.37
2018-07-06T01:03:42.152Z,4.10
2018-07-06T01:06:21.731Z,3.40
2018-07-06T01:08:55.342Z,3.30
2018-07-06T01:11:35.139Z,3.53
2018-07-06T01:14:14.682Z,3.53
2018-07-06T01:16:54.229Z,4.00
2018-07-06T01:19:33.887Z,3.37
2018-07-06T01:22:07.450Z,3.27
2018-07-06T01:24:47.146Z,3.40
2018-07-06T01:27:20.690Z,3.57
2018-07-06T01:30:00.264Z,3.30
2018-07-06T01:32:39.995Z,3.27
2018-07-06T01:35:19.636Z,3.27
2018-07-06T01:37:59.169Z,3.50
2018-07-06T01:40:38.879Z,3.07
2018-07-06T01:43:18.533Z,3.07
2018-07-06T01:46:03.226Z,3.23
2018-07-06T01:48:42.907Z,3.33
2018-07-06T01:51:22.617Z,3.50
2018-07-06T01:54:02.061Z,3.40
2018-07-06T01:56:41.537Z,2.90
2018-07-06T01:59:21.188Z,3.30
2018-07-06T02:02:00.802Z,3.10
2018-07-06T02:04:34.480Z,2.90
2018-07-06T02:07:14.049Z,3.37
2018-07-06T02:09:47.727Z,3.43
2018-07-06T02:12:27.375Z,3.63
2018-07-06T02:15:06.967Z,3.40
2018-07-06T02:17:46.498Z,3.40
2018-07-06T02:20:26.195Z,3.20
2018-07-06T02:23:06.049Z,3.50
2018-07-06T02:25:45.695Z,3.47
2018-07-06T02:28:25.307Z,3.67
2018-07-06T02:31:04.871Z,3.80
2018-07-06T02:33:44.483Z,3.20
2018-07-06T02:36:24.138Z,3.53
2018-07-06T02:39:04.413Z,3.47
2018-07-06T02:41:44.158Z,3.50
2018-07-06T02:44:23.906Z,4.33
2018-07-06T02:47:03.598Z,3.70
2018-07-06T02:49:43.234Z,3.97
2018-07-06T02:52:23.015Z,3.93
2018-07-06T02:55:02.669Z,3.97
2018-07-06T02:57:42.317Z,4.33
2018-07-06T03:00:22.096Z,4.27
2018-07-06T03:02:55.739Z,5.23
2018-07-06T03:05:35.505Z,4.20
2018-07-06T03:08:15.130Z,4.43
2018-07-06T03:10:54.901Z,4.97
2018-07-06T03:13:34.637Z,4.87
2018-07-06T03:16:14.333Z,4.90
2018-07-06T03:18:54.025Z,4.97
2018-07-06T03:21:33.786Z,6.03
2018-07-06T03:24:13.626Z,5.20
2018-07-06T03:26:53.230Z,6.00
2018-07-06T03:29:33.006Z,5.63
2018-07-06T03:32:12.642Z,5.60
2018-07-06T03:34:52.423Z,5.90
2018-07-06T03:37:26.046Z,6.00
2018-07-06T03:40:05.886Z,5.77
2018-07-06T03:42:45.462Z,5.97
2018-07-06T03:45:25.239Z,6.10
2018-07-06T03:48:05.123Z,6.10
2018-07-06T03:50:44.822Z,5.70
2018-07-06T03:53:24.669Z,6.33
2018-07-06T03:56:04.322Z,6.80
2018-07-06T03:58:44.060Z,6.60
2018-07-06T04:01:23.795Z,6.40
2018-07-06T04:04:03.557Z,6.20
2018-07-06T04:06:43.062Z,6.80
2018-07-06T04:09:22.830Z,6.43
2018-07-06T04:12:02.461Z,6.70
2018-07-06T04:14:42.244Z,6.43
2018-07-06T04:17:15.839Z,6.53
2018-07-06T04:19:55.553Z,6.70
2018-07-06T04:22:35.016Z,6.67
2018-07-06T04:25:14.701Z,7.57
2018-07-06T04:27:54.286Z,8.30
2018-07-06T04:30:33.946Z,8.27
2018-07-06T04:33:07.621Z,7.03
2018-07-06T04:35:47.279Z,6.50
2018-07-06T04:38:27.032Z,7.50
2018-07-06T04:41:06.788Z,7.60
2018-07-06T04:43:40.358Z,7.20
2018-07-06T04:46:20.003Z,8.13
2018-07-06T04:48:59.650Z,7.87
2018-07-06T04:51:39.291Z,8.03
2018-07-06T04:54:18.942Z,8.57
2018-07-06T04:56:58.563Z,7.93
2018-07-06T04:59:38.433Z,7.77
2018-07-06T05:02:18.032Z,8.43
2018-07-06T05:04:57.702Z,8.27
2018-07-06T05:07:37.256Z,8.03
2018-07-06T05:10:16.927Z,8.00
2018-07-06T05:12:56.622Z,8.37
2018-07-06T05:15:36.284Z,7.33
2018-07-06T05:18:15.849Z,8.53
2018-07-06T05:20:49.418Z,7.90
2018-07-06T05:23:29.072Z,8.50
2018-07-06T05:26:08.718Z,9.10
2018-07-06T05:28:48.488Z,9.10
2018-07-06T05:31:28.307Z,8.80
2018-07-06T05:34:07.850Z,10.27
2018-07-06T05:36:47.597Z,8.43
2018-07-06T05:39:27.338Z,8.83
2018-07-06T05:42:07.111Z,8.87
2018-07-06T05:44:46.738Z,8.47
2018-07-06T05:47:20.209Z,8.60
2018-07-06T05:49:59.725Z,8.33
2018-07-06T05:52:39.515Z,8.67
2018-07-06T05:55:19.234Z,9.10
2018-07-06T05:57:58.882Z,17.83
2018-07-06T06:00:38.659Z,9.77
2018-07-06T06:03:12.235Z,8.90
2018-07-06T06:05:52.108Z,9.50
2018-07-06T06:08:19.556Z,9.97
2018-07-06T06:10:47.680Z,10.07
2018-07-06T06:13:15.833Z,9.40
2018-07-06T06:15:43.997Z,10.53
2018-07-06T06:18:12.094Z,9.90
2018-07-06T06:20:40.230Z,8.83
2018-07-06T06:23:08.189Z,9.70
2018-07-06T06:25:36.178Z,10.63
2018-07-06T06:28:04.128Z,9.40
2018-07-06T06:30:32.253Z,11.40
2018-07-06T06:33:00.468Z,17.57
2018-07-06T06:35:28.537Z,13.93
2018-07-06T06:37:56.671Z,14.80
2018-07-06T06:40:24.873Z,14.03
2018-07-06T06:42:53.013Z,14.33
2018-07-06T06:45:21.143Z,14.23
2018-07-06T06:47:49.042Z,13.07
2018-07-06T06:50:17.182Z,12.77
2018-07-06T06:52:45.087Z,12.53
2018-07-06T06:55:13.206Z,12.50
2018-07-06T06:57:41.354Z,12.53
2018-07-06T07:00:09.487Z,12.17
2018-07-06T07:02:37.621Z,17.27
2018-07-06T07:05:05.753Z,13.37
2018-07-06T07:07:33.953Z,13.63
2018-07-06T07:10:02.042Z,15.07
2018-07-06T07:12:30.202Z,13.20
2018-07-06T07:14:58.354Z,13.97
2018-07-06T07:17:26.482Z,14.00
2018-07-06T07:19:54.369Z,14.97
2018-07-06T07:22:22.499Z,16.83
2018-07-06T07:24:50.632Z,18.70
2018-07-06T07:27:18.920Z,18.80
2018-07-06T07:29:47.047Z,23.50
2018-07-06T07:32:15.190Z,23.43
2018-07-06T07:34:43.329Z,22.17
2018-07-06T07:37:11.483Z,23.60
2018-07-06T07:39:39.611Z,25.00
2018-07-06T07:42:07.748Z,24.37
2018-07-06T07:44:35.886Z,23.93
2018-07-06T07:47:04.013Z,28.97
2018-07-06T07:49:32.163Z,32.73
2018-07-06T07:52:12.695Z,31.63
2018-07-06T07:54:54.087Z,29.77
2018-07-06T07:57:22.637Z,31.23
2018-07-06T07:59:51.718Z,29.43
2018-07-06T08:02:19.862Z,28.80
2018-07-06T08:04:48.494Z,28.97
2018-07-06T08:07:16.642Z,33.97
2018-07-06T08:09:44.799Z,32.70
2018-07-06T08:12:12.939Z,32.63
2018-07-06T08:14:41.077Z,35.87
2018-07-06T08:17:09.203Z,40.47
2018-07-06T08:19:37.444Z,38.63
2018-07-06T08:22:05.430Z,38.83
2018-07-06T08:24:33.570Z,40.23
2018-07-06T08:27:01.713Z,38.23
2018-07-06T08:29:29.861Z,40.10
2018-07-06T08:31:58.092Z,40.20
2018-07-06T08:34:37.710Z,39.97
2018-07-06T08:37:43.359Z,40.07
2018-07-06T08:40:11.678Z,40.77
2018-07-06T08:42:40.785Z,41.57
2018-07-06T08:45:09.244Z,41.03
2018-07-06T08:47:37.384Z,42.13
2018-07-06T08:50:06.362Z,40.63
2018-07-06T08:52:34.886Z,40.47
2018-07-06T08:55:03.031Z,42.67
2018-07-06T08:57:32.046Z,40.17
2018-07-06T09:00:00.220Z,41.23
2018-07-06T09:02:28.603Z,38.70
2018-07-06T09:04:57.617Z,39.87
2018-07-06T09:07:25.810Z,40.60
2018-07-06T09:09:54.664Z,39.30
2018-07-06T09:12:22.800Z,41.07
2018-07-06T09:14:50.938Z,39.97
2018-07-06T09:17:19.790Z,40.20
2018-07-06T09:19:48.499Z,39.77
2018-07-06T09:22:17.053Z,40.50
2018-07-06T09:24:46.177Z,39.93
2018-07-06T09:27:14.142Z,40.00
2018-07-06T09:29:42.249Z,40.60
2018-07-06T09:32:10.576Z,38.40
2018-07-06T09:34:38.967Z,39.87
2018-07-06T09:37:07.320Z,42.90
2018-07-06T09:39:35.615Z,42.57
2018-07-06T09:42:03.762Z,37.17
2018-07-06T09:44:31.917Z,36.73
2018-07-06T09:47:00.063Z,36.87
2018-07-06T09:49:28.211Z,79.10
2018-07-06T09:51:56.331Z,43.07
2018-07-06T09:54:24.458Z,40.90
2018-07-06T09:56:52.623Z,34.77
2018-07-06T09:59:20.791Z,43.37
2018-07-06T10:01:48.956Z,40.07
2018-07-06T10:04:17.112Z,36.80
2018-07-06T10:06:45.250Z,35.60
2018-07-06T10:09:13.405Z,37.63
2018-07-06T10:11:41.289Z,38.10
2018-07-06T10:14:09.427Z,37.87
2018-07-06T10:16:37.566Z,39.40
2018-07-06T10:19:05.710Z,35.13
2018-07-06T10:21:33.848Z,39.03
2018-07-06T10:24:02.007Z,35.07
2018-07-06T10:26:30.137Z,34.77
2018-07-06T10:29:08.449Z,33.40
2018-07-06T10:31:49.442Z,34.50
2018-07-06T10:34:17.961Z,35.37
2018-07-06T10:36:46.337Z,32.23
2018-07-06T10:39:14.494Z,30.50
2018-07-06T10:41:42.641Z,30.37
2018-07-06T10:44:10.763Z,29.67
2018-07-06T10:46:38.942Z,30.07
2018-07-06T10:49:07.045Z,31.93
2018-07-06T10:51:35.188Z,31.90
2018-07-06T10:54:03.086Z,29.60
2018-07-06T10:56:31.225Z,31.27
2018-07-06T10:58:59.178Z,31.40
2018-07-06T11:01:27.332Z,29.07
2018-07-06T11:03:55.467Z,28.93
2018-07-06T11:06:23.605Z,29.53
2018-07-06T11:08:51.610Z,30.10
2018-07-06T11:11:19.749Z,28.03
2018-07-06T11:13:47.911Z,23.50
2018-07-06T11:16:16.091Z,25.90
2018-07-06T11:18:44.522Z,27.17
2018-07-06T11:21:12.659Z,27.17
2018-07-06T11:23:40.631Z,24.00
2018-07-06T11:26:08.550Z,21.93
2018-07-06T11:28:36.688Z,22.43
2018-07-06T11:31:04.821Z,21.30
2018-07-06T11:33:32.944Z,20.23
2018-07-06T11:36:01.161Z,20.40
2018-07-06T11:38:30.225Z,20.80
2018-07-06T11:40:59.420Z,18.53
2018-07-06T11:43:28.418Z,19.37
2018-07-06T11:45:57.805Z,18.97
2018-07-06T11:48:26.841Z,18.00
2018-07-06T11:50:55.909Z,18.37
2018-07-06T11:53:24.939Z,20.10
2018-07-06T11:55:53.989Z,17.27
2018-07-06T11:58:22.156Z,17.37
2018-07-06T12:00:50.508Z,19.23
2018-07-06T12:03:18.629Z,19.57
2018-07-06T12:05:47.921Z,18.50
2018-07-06T12:08:16.042Z,16.80
2018-07-06T12:10:44.849Z,15.97
2018-07-06T12:13:13.197Z,19.00
2018-07-06T12:15:41.947Z,17.93
2018-07-06T12:18:11.047Z,17.10
2018-07-06T12:20:40.087Z,17.57
2018-07-06T12:23:08.425Z,18.23
2018-07-06T12:25:37.349Z,17.63
2018-07-06T12:28:06.250Z,16.70
2018-07-06T12:30:34.817Z,18.30
2018-07-06T12:33:03.216Z,14.97
2018-07-06T12:35:31.374Z,15.80
2018-07-06T12:37:59.500Z,15.33
2018-07-06T12:40:27.622Z,17.60
2018-07-06T12:42:55.607Z,16.67
2018-07-06T12:45:23.726Z,15.33
2018-07-06T12:47:52.087Z,15.43
2018-07-06T12:50:21.162Z,16.03
2018-07-06T12:52:49.322Z,17.23
2018-07-06T12:55:17.687Z,15.00
2018-07-06T12:57:46.156Z,15.13
2018-07-06T13:00:15.204Z,16.67
2018-07-06T13:02:43.414Z,18.43
2018-07-06T13:05:11.551Z,18.00
2018-07-06T13:07:40.544Z,16.93
2018-07-06T13:10:09.682Z,15.13
2018-07-06T13:12:38.358Z,18.63
2018-07-06T13:15:07.273Z,16.40
2018-07-06T13:17:36.193Z,16.90
2018-07-06T13:20:04.500Z,15.73
2018-07-06T13:22:33.577Z,15.93
2018-07-06T13:25:02.439Z,16.17
2018-07-06T13:27:30.524Z,15.83
2018-07-06T13:29:58.651Z,14.00
2018-07-06T13:32:26.778Z,15.23
2018-07-06T13:34:54.910Z,16.40
2018-07-06T13:37:22.873Z,15.00
2018-07-06T13:39:51.023Z,13.80
2018-07-06T13:42:19.151Z,14.33
2018-07-06T13:44:47.292Z,11.40
2018-07-06T13:47:15.425Z,11.40
2018-07-06T13:49:43.579Z,10.20
2018-07-06T13:52:11.715Z,9.30
2018-07-06T13:54:39.669Z,12.00
2018-07-06T13:57:07.818Z,9.97
2018-07-06T13:59:36.099Z,8.47
2018-07-06T14:02:04.234Z,8.03
2018-07-06T14:04:32.352Z,8.60
2018-07-06T14:07:00.486Z,6.93
2018-07-06T14:09:28.611Z,7.93
2018-07-06T14:11:56.631Z,8.90
2018-07-06T14:14:24.788Z,8.10
2018-07-06T14:16:52.917Z,7.30
2018-07-06T14:19:21.059Z,8.13
2018-07-06T14:21:49.229Z,7.80
2018-07-06T14:24:17.589Z,7.33
2018-07-06T14:26:45.735Z,7.47
2018-07-06T14:29:13.873Z,8.07
2018-07-06T14:31:42.000Z,7.60
2018-07-06T14:34:10.127Z,6.77
2018-07-06T14:36:38.234Z,7.10
2018-07-06T14:39:07.284Z,6.63
2018-07-06T14:41:35.368Z,6.70
2018-07-06T14:44:03.342Z,6.43
2018-07-06T14:46:31.250Z,7.10
2018-07-06T14:48:59.397Z,6.10
2018-07-06T14:51:27.899Z,6.40
2018-07-06T14:53:56.003Z,6.67
2018-07-06T14:56:24.134Z,6.70
2018-07-06T14:58:53.198Z,6.37
2018-07-06T15:01:21.935Z,6.67
2018-07-06T15:03:51.251Z,6.47
2018-07-06T15:06:20.117Z,6.17
2018-07-06T15:08:48.885Z,6.17
2018-07-06T15:11:17.048Z,6.63
2018-07-06T15:13:45.178Z,6.03
2018-07-06T15:16:13.307Z,5.97
2018-07-06T15:18:41.531Z,5.77
2018-07-06T15:21:09.726Z,5.90
2018-07-06T15:23:37.642Z,5.93
2018-07-06T15:26:05.761Z,5.67
2018-07-06T15:28:33.674Z,6.40
2018-07-06T15:31:01.811Z,6.20
2018-07-06T15:33:29.756Z,6.63
2018-07-06T15:35:57.725Z,5.27
2018-07-06T15:38:25.624Z,6.40
2018-07-06T15:40:53.804Z,5.97
2018-07-06T15:43:21.886Z,6.40
2018-07-06T15:45:50.014Z,6.10
2018-07-06T15:48:17.922Z,6.10
2018-07-06T15:50:46.042Z,6.23
2018-07-06T15:53:14.180Z,6.50
2018-07-06T15:55:42.293Z,5.60
2018-07-06T15:58:10.216Z,5.47
2018-07-06T16:00:38.334Z,6.27
2018-07-06T16:03:06.421Z,6.03
2018-07-06T16:05:34.548Z,5.83
2018-07-06T16:08:03.514Z,5.90
2018-07-06T16:10:31.641Z,6.07
2018-07-06T16:12:59.549Z,6.33
2018-07-06T16:15:27.682Z,5.70
2018-07-06T16:17:55.592Z,5.50
2018-07-06T16:20:23.707Z,5.50
2018-07-06T16:22:51.681Z,6.00
2018-07-06T16:25:19.582Z,5.40
2018-07-06T16:27:47.717Z,5.40
2018-07-06T16:30:15.842Z,5.73
2018-07-06T16:32:43.994Z,5.23
2018-07-06T16:35:12.204Z,5.07
2018-07-06T16:37:40.317Z,5.20
2018-07-06T16:40:08.443Z,4.80
2018-07-06T16:42:36.563Z,5.40
2018-07-06T16:45:04.514Z,5.30
2018-07-06T16:47:32.637Z,5.17
2018-07-06T16:50:00.766Z,5.33
2018-07-06T16:52:28.734Z,5.50
2018-07-06T16:54:56.709Z,5.63
2018-07-06T16:57:24.669Z,5.60
2018-07-06T16:59:52.641Z,5.63
2018-07-06T17:02:20.765Z,5.13
2018-07-06T17:04:48.897Z,4.83
2018-07-06T17:07:17.023Z,5.47
2018-07-06T17:09:45.252Z,5.40
2018-07-06T17:12:13.290Z,5.63
2018-07-06T17:14:41.419Z,5.70
2018-07-06T17:17:09.554Z,5.43
2018-07-06T17:19:37.502Z,5.83
2018-07-06T17:22:05.637Z,5.53
2018-07-06T17:24:33.762Z,5.20
2018-07-06T17:27:01.894Z,5.63
2018-07-06T17:29:30.037Z,5.57
2018-07-06T17:31:58.152Z,5.67
2018-07-06T17:34:26.275Z,5.43
2018-07-06T17:36:54.522Z,5.30
2018-07-06T17:39:22.492Z,6.27
2018-07-06T17:41:50.394Z,5.70
2018-07-06T17:44:18.523Z,5.27
2018-07-06T17:46:46.629Z,5.53
2018-07-06T17:49:14.757Z,5.50
2018-07-06T17:51:42.876Z,5.10
2018-07-06T17:54:11.010Z,5.33
2018-07-06T17:56:38.986Z,5.10
2018-07-06T17:59:06.897Z,5.23
2018-07-06T18:01:35.092Z,5.00
2018-07-06T18:04:03.300Z,5.17
2018-07-06T18:06:31.186Z,5.13
2018-07-06T18:08:59.326Z,5.17
2018-07-06T18:11:27.438Z,4.80
2018-07-06T18:13:55.565Z,4.73
2018-07-06T18:16:24.822Z,4.73
2018-07-06T18:18:52.953Z,4.73
2018-07-06T18:21:21.092Z,4.90
2018-07-06T18:23:49.235Z,5.53
2018-07-06T18:26:17.357Z,4.83
2018-07-06T18:28:45.267Z,4.70
2018-07-06T18:31:13.410Z,4.63
2018-07-06T18:33:41.532Z,4.60
2018-07-06T18:36:09.774Z,4.43
2018-07-06T18:38:37.889Z,4.80
2018-07-06T18:41:06.027Z,4.70
2018-07-06T18:43:34.150Z,5.10
2018-07-06T18:46:02.280Z,4.77
2018-07-06T18:48:30.401Z,4.97
2018-07-06T18:50:58.541Z,4.47
2018-07-06T18:53:26.666Z,4.70
2018-07-06T18:55:54.806Z,4.43
2018-07-06T18:58:22.929Z,4.50
2018-07-06T19:00:51.047Z,4.30
2018-07-06T19:03:19.171Z,4.20
2018-07-06T19:05:47.307Z,4.03
2018-07-06T19:08:15.438Z,4.10
2018-07-06T19:10:43.575Z,4.47
2018-07-06T19:13:11.704Z,3.93
2018-07-06T19:15:39.835Z,4.47
2018-07-06T19:18:08.051Z,4.13
2018-07-06T19:20:36.338Z,4.03
2018-07-06T19:23:04.458Z,4.00
2018-07-06T19:25:32.579Z,3.90
2018-07-06T19:28:00.703Z,4.20
2018-07-06T19:30:28.843Z,3.70
2018-07-06T19:32:57.055Z,4.40
2018-07-06T19:35:25.170Z,4.37
2018-07-06T19:37:53.302Z,3.60
2018-07-06T19:40:21.431Z,3.63
2018-07-06T19:42:49.557Z,4.00
2018-07-06T19:45:17.755Z,3.97
2018-07-06T19:47:46.086Z,3.93
2018-07-06T19:50:14.222Z,3.53
2018-07-06T19:52:42.342Z,4.13
2018-07-06T19:55:10.481Z,4.00
2018-07-06T19:57:38.684Z,4.10
2018-07-06T20:00:06.751Z,4.07
2018-07-06T20:02:34.883Z,3.93
2018-07-06T20:05:02.787Z,4.10
2018-07-06T20:07:30.906Z,3.97
2018-07-06T20:09:59.051Z,4.13
2018-07-06T20:12:27.229Z,4.33
2018-07-06T20:14:55.358Z,4.70
2018-07-06T20:17:23.660Z,4.60
2018-07-06T20:19:51.776Z,4.70
2018-07-06T20:22:19.907Z,4.70
2018-07-06T20:24:48.025Z,4.73
2018-07-06T20:27:15.943Z,4.57
2018-07-06T20:29:44.058Z,5.87
2018-07-06T20:32:12.214Z,14.03
2018-07-06T20:34:40.336Z,8.63
2018-07-06T20:37:08.462Z,6.40
2018-07-06T20:39:36.639Z,5.87
2018-07-06T20:42:04.793Z,6.00
2018-07-06T20:44:32.936Z,5.80
2018-07-06T20:47:01.274Z,5.60
2018-07-06T20:49:29.431Z,5.33
2018-07-06T20:51:57.623Z,5.60
2018-07-06T20:54:25.744Z,5.97
2018-07-06T20:56:54.169Z,6.13
2018-07-06T20:59:22.302Z,6.07
2018-07-06T21:01:50.433Z,6.50
2018-07-06T21:04:18.570Z,6.53
2018-07-06T21:06:46.734Z,6.17
2018-07-06T21:09:14.854Z,6.23
2018-07-06T21:11:42.818Z,5.63
2018-07-06T21:14:10.982Z,5.40
2018-07-06T21:16:39.114Z,5.83
2018-07-06T21:19:07.241Z,5.80
2018-07-06T21:21:35.210Z,5.93
2018-07-06T21:24:03.261Z,6.20
2018-07-06T21:26:31.408Z,6.30
2018-07-06T21:28:59.546Z,6.00
2018-07-06T21:31:27.782Z,6.10
2018-07-06T21:33:55.901Z,6.30
2018-07-06T21:36:24.088Z,6.77
2018-07-06T21:38:52.186Z,6.33
2018-07-06T21:41:20.326Z,6.40
2018-07-06T21:43:48.434Z,6.97
2018-07-06T21:46:16.571Z,6.60
2018-07-06T21:48:44.724Z,7.40
2018-07-06T21:51:12.850Z,7.07
2018-07-06T21:53:40.973Z,7.37
2018-07-06T21:56:09.122Z,7.40
2018-07-06T21:58:37.020Z,7.00
2018-07-06T22:01:05.150Z,7.13
2018-07-06T22:03:33.276Z,7.60
2018-07-06T22:06:01.418Z,7.70
2018-07-06T22:08:29.365Z,7.07
2018-07-06T22:10:57.270Z,7.10
2018-07-06T22:13:25.407Z,7.23
2018-07-06T22:15:53.522Z,7.40
2018-07-06T22:18:21.657Z,7.43
2018-07-06T22:20:49.733Z,7.03
2018-07-06T22:23:17.994Z,6.77
2018-07-06T22:25:46.122Z,7.13
2018-07-06T22:28:14.246Z,7.27
2018-07-06T22:30:42.160Z,7.00
2018-07-06T22:33:10.286Z,7.03
2018-07-06T22:35:38.408Z,7.57
2018-07-06T22:38:06.534Z,7.70
2018-07-06T22:40:34.431Z,7.93
2018-07-06T22:43:02.582Z,8.57
2018-07-06T22:45:30.533Z,8.33
2018-07-06T22:47:58.449Z,8.47
2018-07-06T22:50:26.584Z,7.97
2018-07-06T22:52:54.480Z,8.43
2018-07-06T22:55:22.616Z,8.20
2018-07-06T22:57:50.759Z,7.90
2018-07-06T23:00:18.906Z,7.97
2018-07-06T23:02:47.046Z,7.60
2018-07-06T23:05:16.413Z,8.23
2018-07-06T23:07:44.463Z,8.17
2018-07-06T23:10:13.173Z,6.93
2018-07-06T23:12:41.478Z,7.90
2018-07-06T23:15:09.374Z,7.80
2018-07-06T23:17:37.517Z,7.60
2018-07-06T23:20:05.807Z,7.57
2018-07-06T23:23:13.065Z,7.83
2018-07-06T23:25:43.284Z,7.30
2018-07-06T23:28:11.419Z,7.90
2018-07-06T23:30:39.737Z,7.07
2018-07-06T23:33:08.639Z,7.57
2018-07-06T23:35:36.617Z,7.97
2018-07-06T23:38:04.538Z,7.97
2018-07-06T23:40:32.666Z,7.33
2018-07-06T23:43:00.826Z,7.83
2018-07-06T23:45:28.743Z,8.13
2018-07-06T23:47:56.886Z,7.30
2018-07-06T23:50:25.122Z,6.90
2018-07-06T23:52:53.259Z,8.10
2018-07-06T23:55:21.390Z,7.40
2018-07-06T23:57:49.673Z,7.77
